NCAR-RAP Real-Time Weather Data

Output produced by METARs form (12 August 2020  18:59 UTC)
found at http://weather.rap.ucar.edu/surface/
 
KLGA 121851Z 17008KT 10SM TS SCT035 BKN065TCU BKN250 32/23 A2998 RMK AO2 LTG DSNT E-SW TSB50 SLP153 TCU ALQDS CB DSNT E MOV E T03170228
KLGA 121838Z 10004KT 10SM VCTS SCT035 BKN065TCU BKN250 32/21 A2999 RMK AO2 LTG DSNT E TCU ALQDS CB DSNT E MOV E T03220211
KLGA 121751Z 06004KT 10SM SCT034 SCT060TCU SCT250 32/22 A2999 RMK AO2 LTG DSNT E RAE01 SLP156 TCU E AND W-N P0000 60000 T03220217 10328 20278 58008
KLGA 121651Z 18006KT 10SM -RA FEW035 SCT046TCU BKN055 30/22 A3000 RMK AO2 RAB42 SLP160 TCU W-N P0000 T03000222
KLGA 121551Z 05006KT 10SM SCT046TCU BKN055 31/23 A3001 RMK AO2 SLP163 TCU OHD AND S-SW T03060228
KLGA 121451Z 05006KT 10SM FEW028 SCT055 30/23 A3002 RMK AO2 SLP164 T03000233 53003
KLGA 121351Z 06006KT 10SM SCT021 SCT060 BKN250 29/23 A3001 RMK AO2 SLP162 T02890233
KLGA 121347Z 07006KT 10SM SCT021 SCT060 BKN250 29/23 A3001 RMK AO2
KLGA 121251Z 00000KT 10SM BKN018 BKN025 BKN150 28/23 A3001 RMK AO2 SLP161 T02830233
KLGA 121228Z 00000KT 10SM BKN017 BKN050 BKN150 28/23 A3001 RMK AO2 T02830233
KLGA 121151Z 04003KT 10SM FEW015 SCT020 BKN150 BKN230 28/23 A3000 RMK AO2 SLP158 T02780233 10278 20267 53009
KLGA 121120Z COR 33003KT 10SM SCT021 BKN150 BKN230 28/23 A3000 RMK AO2 T02780233
KLGA 121051Z 00000KT 10SM FEW025 FEW060 SCT150 BKN230 27/23 A2998 RMK AO2 SLP153 CB DSNT SE T02720233
KLGA 120958Z 17008KT 10SM FEW050 SCT200 27/23 A2998 RMK AO2 CB DSNT SE MOV E T02670233
KLGA 120951Z 15006KT 10SM VCTS FEW017 FEW024 FEW050 SCT200 27/23 A2998 RMK AO2 TSE07 SLP151 CB DSNT SE MOV E T02720233
KLGA 120922Z COR 22004KT 10SM VCTS FEW017 SCT023 SCT036 27/23 A2997 RMK AO2 LTGDSNT E TSE07 OCNL LTGIC DSNT E CB DSNT E MOV E T02720233
KLGA 120909Z COR 20005KT 10SM VCTS FEW016 SCT023 SCT033 27/23 A2997 RMK AO2 LTG DSNT SW AND W TSE07 OCNL LTGIC DSNT SW CB DSNT SW MOV E T02720233
KLGA 120851Z 23006KT 10SM SCT016 BKN024 BKN035 27/23 A2997 RMK AO2 LTG DSNT NE CIG 016 R22 SW SLP149 T02720228 53005
KLGA 120819Z 25004KT 10SM BKN019 BKN029 OVC065 27/23 A2997 RMK AO2 LTG DSNT NE T02720233
KLGA 120751Z 23007KT 10SM FEW031 BKN065 BKN085 BKN250 27/23 A2997 RMK AO2 SLP147 T02720228
KLGA 120651Z 22006KT 10SM SCT090 BKN250 27/23 A2996 RMK AO2 SLP144 T02720228
KLGA 120551Z 20007KT 10SM FEW012 BKN250 27/23 A2996 RMK AO2 SLP144 T02720228 10278 20267 51005
KLGA 120451Z 21007KT 10SM FEW012 SCT250 28/23 A2995 RMK AO2 SLP143 T02780228 403170267
KLGA 120351Z 18007KT 10SM FEW030 SCT250 27/23 A2995 RMK AO2 SLP142 T02720228
KLGA 120251Z 16009KT 10SM FEW002 SCT250 27/23 A2994 RMK AO2 SLP138 T02670228 51009
KLGA 120201Z 16008KT 10SM FEW002 SCT250 27/23 A2994 RMK AO2 T02670228
KLGA 120151Z 17009KT 10SM FEW050 SCT250 27/23 A2994 RMK AO2 SLP138 T02670228
KLGA 120051Z 18009KT 10SM FEW050 SCT250 27/23 A2992 RMK AO2 SLP133 T02720228
KLGA 112351Z 17010KT 10SM FEW050 SCT250 28/23 A2991 RMK AO2 SLP129 60000 T02780228 10317 20278 55001
KLGA 112251Z 18012KT 10SM FEW050 FEW250 28/22 A2991 RMK AO2 SLP128 T02830217
KLGA 112151Z 17014KT 10SM FEW050 SCT120 SCT250 29/21 A2992 RMK AO2 SLP131 T02940211
KLGA 112051Z 17008KT 10SM FEW050 SCT120 BKN250 31/18 A2992 RMK AO2 RAB29E39 SLP130 P0000 60000 T03110183 56013
KLGA 111951Z 18014G22KT 10SM FEW050 SCT250 31/22 A2993 RMK AO2 LTG DSNT SW AND W SLP135 T03110217
KLGA 111851Z COR 18012KT 10SM FEW050 SCT250 31/22 A2993 RMK AO2 LTG DSNT SW SLP136 CB DSNT SW MOV NE T03110222
KLGA 111751Z 17010KT 10SM FEW050TCU SCT250 31/21 A2995 RMK AO2 SLP143 TCU W T03110211 10317 20283 58010
KLGA 111651Z 16013KT 10SM FEW045 BKN250 31/21 A2997 RMK AO2 SLP148 T03110211
KLGA 111551Z 16009KT 10SM FEW035 BKN250 31/22 A2998 RMK AO2 SLP152 T03110217
KLGA 111451Z 17007KT 10SM FEW027 SCT035 SCT250 31/22 A2998 RMK AO2 SLP153 T03110222 51004
KLGA 111351Z VRB03KT 10SM FEW018 BKN250 29/22 A2998 RMK AO2 SLP152 T02940222
KLGA 111251Z 18008KT 10SM FEW017 BKN250 29/23 A2998 RMK AO2 SLP151 T02890228
KLGA 111151Z 20007KT 10SM FEW010 SCT250 28/23 A2997 RMK AO2 SLP149 T02830228 10283 20267 52008
KLGA 111051Z 22004KT 10SM BKN250 28/23 A2996 RMK AO2 SLP147 T02780228
KLGA 110951Z 21005KT 10SM BKN250 27/22 A2995 RMK AO2 SLP143 T02720222
KLGA 110851Z 20005KT 10SM FEW030 SCT250 27/22 A2995 RMK AO2 SLP141 T02720222 55002
KLGA 110751Z 21006KT 10SM SCT250 27/22 A2994 RMK AO2 SLP139 T02720222
KLGA 110651Z 20006KT 10SM SCT250 28/22 A2994 RMK AO2 SLP139 T02780222
KLGA 110551Z 20007KT 10SM SCT250 28/22 A2995 RMK AO2 SLP143 T02830217 10300 20283 56003
KLGA 110451Z 22009KT 10SM SCT250 28/22 A2996 RMK AO2 SLP144 T02830217 403500261
KLGA 110351Z 23011KT 10SM FEW250 29/22 A2996 RMK AO2 SLP145 T02890217
KLGA 110251Z 21010KT 10SM FEW250 29/22 A2996 RMK AO2 SLP146 T02940222 51008
KLGA 110151Z 18008KT 10SM FEW250 29/23 A2996 RMK AO2 SLP145 T02890228
KLGA 110051Z 17008KT 10SM FEW060 SCT250 29/22 A2995 RMK AO2 SLP143 T02890222
KLGA 102351Z 17009KT 10SM FEW060 SCT250 30/22 A2994 RMK AO2 SLP138 T03000222 10350 20300 56003
KLGA 102251Z 17010KT 10SM FEW060 32/21 A2994 RMK AO2 SLP138 T03170211
KLGA 102151Z 18009KT 10SM FEW060 32/21 A2994 RMK AO2 SLP139 T03170211
KLGA 102051Z 17014KT 10SM FEW060 32/21 A2995 RMK AO2 SLP141 T03220211 56016
KLGA 101951Z 16016KT 10SM FEW060 33/21 A2997 RMK AO2 SLP148 T03330206